Time;durP1;ratioP1;P1;durP2;ratioP2;P2;SDS_P1;SDS_P2;PMS_P1;PMS_P2;Temp;Humidity;BMP_temperature;BMP_pressure;BME280_temperature;BME280_humidity;BME280_pressure;Samples;Min_cycle;Max_cycle;Signal;HPM_P1;HPM_P2
2022/03/04 00:01:46;;;;;;;16.05;8.73;;;;;;;6.15;45.29;99521.94;5073771;28;20024;-48
2022/03/04 00:04:15;;;;;;;13.18;8.30;;;;;;;5.99;45.15;99522.09;5073552;28;20107;-48
2022/03/04 00:06:40;;;;;;;15.02;9.10;;;;;;;5.76;46.81;99522.09;5073401;28;20023;-48
2022/03/04 00:09:06;;;;;;;20.52;10.38;;;;;;;5.57;48.24;99523.38;5055921;28;20021;-52
2022/03/04 00:11:32;;;;;;;18.23;10.70;;;;;;;5.49;49.33;99525.09;5059849;28;20017;-49
2022/03/04 00:13:57;;;;;;;27.83;14.70;;;;;;;5.36;51.69;99524.03;5036328;28;20083;-48
2022/03/04 00:16:24;;;;;;;28.65;14.70;;;;;;;5.17;53.25;99525.28;5053746;28;20021;-49
2022/03/04 00:19:06;;;;;;;28.15;16.65;;;;;;;4.98;54.90;99529.19;5053964;28;20032;-48
2022/03/04 00:21:48;;;;;;;31.20;16.33;;;;;;;4.79;55.64;99527.78;5053799;28;20032;-49
2022/03/04 00:24:14;;;;;;;31.30;17.92;;;;;;;4.67;57.28;99525.53;5053693;28;20144;-49
2022/03/04 00:26:40;;;;;;;34.17;18.10;;;;;;;4.56;57.25;99517.97;5053124;28;20033;-54
2022/03/04 00:29:06;;;;;;;31.92;17.73;;;;;;;4.48;57.90;99525.91;5053067;28;20083;-49
2022/03/04 00:31:32;;;;;;;33.50;18.63;;;;;;;4.25;58.48;99521.34;5052705;28;20086;-50
2022/03/04 00:33:58;;;;;;;33.67;18.92;;;;;;;4.04;61.57;99518.44;5053295;28;20089;-48
2022/03/04 00:36:23;;;;;;;34.92;18.90;;;;;;;4.02;61.26;99520.41;5068652;28;20082;-51
2022/03/04 00:38:53;;;;;;;36.78;19.38;;;;;;;4.88;58.48;99521.50;5055239;28;20031;-51
2022/03/04 00:41:19;;;;;;;30.83;18.20;;;;;;;4.57;59.02;99513.53;5073070;28;20074;-50
2022/03/04 00:43:45;;;;;;;34.00;19.35;;;;;;;4.28;59.89;99513.13;5073455;28;20484;-47
2022/03/04 00:46:11;;;;;;;33.22;18.95;;;;;;;3.82;61.26;99520.75;5073251;28;20475;-49
2022/03/04 00:48:37;;;;;;;35.13;18.23;;;;;;;3.69;62.41;99528.31;5055535;28;20044;-48
2022/03/04 00:51:02;;;;;;;36.88;18.75;;;;;;;3.55;62.46;99523.72;5073079;28;20437;-48
2022/03/04 00:53:28;;;;;;;34.67;19.05;;;;;;;3.65;63.28;99530.44;5073262;28;20047;-49
2022/03/04 00:55:53;;;;;;;36.47;19.75;;;;;;;3.61;63.04;99529.13;5073468;28;20024;-48
2022/03/04 00:58:19;;;;;;;34.92;19.33;;;;;;;3.56;63.52;99525.34;5073579;28;20028;-49
2022/03/04 01:00:44;;;;;;;33.90;18.33;;;;;;;3.41;64.34;99515.47;5073754;28;20040;-49
2022/03/04 01:03:10;;;;;;;34.88;18.85;;;;;;;3.61;63.85;99528.31;5073152;28;20032;-48
2022/03/04 01:05:35;;;;;;;36.08;19.42;;;;;;;3.49;63.80;99523.38;5073439;28;20468;-49
2022/03/04 01:08:00;;;;;;;36.20;19.33;;;;;;;3.40;64.78;99513.81;5039046;28;20153;-50
2022/03/04 01:10:26;;;;;;;37.63;20.58;;;;;;;3.42;64.38;99514.47;5068302;28;20028;-49
2022/03/04 01:12:51;;;;;;;36.83;20.55;;;;;;;3.42;64.64;99503.94;5053954;28;20065;-49
2022/03/04 01:15:17;;;;;;;47.15;23.02;;;;;;;3.66;63.59;99504.97;5053305;28;20441;-49
2022/03/04 01:17:42;;;;;;;39.20;20.85;;;;;;;3.70;63.63;99508.91;5053229;28;20028;-50
2022/03/04 01:20:08;;;;;;;36.88;20.67;;;;;;;3.52;64.50;99498.53;5052720;28;20441;-50
2022/03/04 01:22:34;;;;;;;46.72;22.35;;;;;;;3.34;65.33;99498.69;5053166;28;20061;-50
2022/03/04 01:24:59;;;;;;;43.15;21.73;;;;;;;3.35;65.24;99492.47;5053224;28;20378;-49
2022/03/04 01:27:25;;;;;;;37.58;20.92;;;;;;;3.23;65.05;99497.19;5053028;28;20530;-48
2022/03/04 01:29:50;;;;;;;39.83;21.15;;;;;;;3.35;64.95;99497.72;5053512;28;20025;-50
2022/03/04 01:32:16;;;;;;;43.83;22.10;;;;;;;3.39;64.85;99487.66;5053021;28;20115;-49
2022/03/04 01:34:41;;;;;;;39.28;21.15;;;;;;;3.25;65.03;99491.78;5054328;28;20027;-49
2022/03/04 01:37:07;;;;;;;40.03;20.83;;;;;;;2.97;66.16;99494.69;5072847;28;20031;-49
2022/03/04 01:39:33;;;;;;;43.03;21.10;;;;;;;3.05;66.67;99493.88;5069598;28;20032;-47
2022/03/04 01:41:58;;;;;;;42.40;21.13;;;;;;;2.93;67.00;99493.34;5052847;28;20033;-48
2022/03/04 01:44:23;;;;;;;38.15;20.75;;;;;;;3.04;66.94;99498.28;5052581;28;20024;-51
2022/03/04 01:46:49;;;;;;;37.42;20.55;;;;;;;3.23;65.52;99496.38;5052664;28;20029;-50
2022/03/04 01:49:14;;;;;;;37.00;20.17;;;;;;;3.14;66.19;99495.53;5052938;28;20025;-48
2022/03/04 01:51:40;;;;;;;40.42;20.35;;;;;;;3.18;65.98;99485.50;5052774;28;20415;-49
2022/03/04 01:54:05;;;;;;;43.72;20.83;;;;;;;3.12;65.71;99490.44;5052703;28;20040;-49
2022/03/04 01:56:31;;;;;;;42.70;21.15;;;;;;;3.26;65.13;99473.19;5052563;28;20028;-48
2022/03/04 01:58:56;;;;;;;42.95;21.65;;;;;;;3.32;65.30;99477.00;5052559;28;20032;-48
2022/03/04 02:01:22;;;;;;;43.75;21.85;;;;;;;3.36;64.72;99473.03;5052446;28;20033;-49
2022/03/04 02:03:47;;;;;;;40.20;20.98;;;;;;;3.25;64.79;99465.47;5052332;28;20044;-49
2022/03/04 02:06:13;;;;;;;41.35;22.00;;;;;;;3.22;65.05;99456.09;5052503;28;20048;-49
2022/03/04 02:08:38;;;;;;;41.33;20.95;;;;;;;2.91;65.72;99458.50;5052508;28;20385;-49
2022/03/04 02:11:04;;;;;;;41.22;21.35;;;;;;;2.66;67.04;99463.69;5052165;28;20032;-49
2022/03/04 02:13:29;;;;;;;41.85;20.90;;;;;;;2.69;67.33;99463.38;5052174;28;20024;-49
2022/03/04 02:15:55;;;;;;;42.03;20.98;;;;;;;2.56;67.23;99465.63;5033380;28;20025;-47
2022/03/04 02:18:20;;;;;;;37.90;20.77;;;;;;;2.69;67.03;99463.38;5052200;28;20020;-49
2022/03/04 02:20:47;;;;;;;38.17;20.67;;;;;;;2.61;67.39;99460.72;5051948;28;20029;-48
2022/03/04 02:23:13;;;;;;;41.63;21.80;;;;;;;2.40;68.17;99466.41;5051970;28;20045;-50
2022/03/04 02:25:40;;;;;;;39.45;19.73;;;;;;;2.40;68.19;99465.56;5051792;28;20025;-48
2022/03/04 02:28:06;;;;;;;41.30;21.05;;;;;;;2.56;68.56;99463.00;5051938;28;20113;-48
2022/03/04 02:30:32;;;;;;;39.58;20.30;;;;;;;2.49;68.24;99457.53;5051956;28;20096;-49
2022/03/04 02:32:57;;;;;;;42.80;22.13;;;;;;;2.65;67.84;99456.00;5052006;28;20025;-52
2022/03/04 02:35:23;;;;;;;43.97;21.38;;;;;;;2.58;68.63;99457.59;5058895;28;20020;-49
2022/03/04 02:37:48;;;;;;;44.47;21.55;;;;;;;2.35;69.50;99468.66;5071508;28;20028;-48
2022/03/04 02:40:14;;;;;;;43.97;21.67;;;;;;;2.46;68.86;99463.13;5071654;28;20020;-48
2022/03/04 02:42:39;;;;;;;43.03;20.95;;;;;;;2.60;68.02;99461.69;5071483;28;20039;-50
2022/03/04 02:45:05;;;;;;;40.45;21.17;;;;;;;2.30;68.68;99466.53;5071734;28;20029;-48
2022/03/04 02:47:31;;;;;;;41.65;21.45;;;;;;;2.48;68.56;99468.25;5071432;28;20120;-49
2022/03/04 02:49:56;;;;;;;39.33;20.48;;;;;;;2.36;69.23;99465.03;5058907;28;20033;-48
2022/03/04 02:52:21;;;;;;;41.75;21.30;;;;;;;2.19;69.75;99472.03;5033561;28;20181;-51
2022/03/04 02:54:47;;;;;;;42.03;21.88;;;;;;;2.25;69.31;99467.97;5050788;28;20021;-50
2022/03/04 02:57:12;;;;;;;44.47;21.13;;;;;;;2.17;69.90;99471.38;5051590;28;20036;-49
2022/03/04 02:59:38;;;;;;;42.13;21.58;;;;;;;2.32;69.97;99477.69;5051458;28;20032;-50
2022/03/04 03:02:03;;;;;;;42.47;20.30;;;;;;;2.31;69.07;99483.91;5051392;28;20484;-52
2022/03/04 03:04:29;;;;;;;41.63;21.38;;;;;;;2.17;69.68;99484.50;5051241;28;20432;-51
2022/03/04 03:06:54;;;;;;;41.50;21.20;;;;;;;2.18;69.68;99483.50;5051219;28;20039;-52
2022/03/04 03:09:20;;;;;;;38.08;21.38;;;;;;;2.28;70.28;99486.03;5051310;28;20036;-49
2022/03/04 03:11:45;;;;;;;45.42;22.20;;;;;;;2.11;71.12;99488.56;5051555;28;20032;-50
2022/03/04 03:14:10;;;;;;;38.47;20.80;;;;;;;2.18;70.61;99491.38;5051216;28;20087;-49
2022/03/04 03:16:36;;;;;;;39.40;21.50;;;;;;;2.01;71.86;99498.34;5051466;28;20028;-49
2022/03/04 03:19:01;;;;;;;41.72;20.73;;;;;;;2.23;71.29;99499.63;5050760;28;20028;-50
2022/03/04 03:21:27;;;;;;;41.60;21.27;;;;;;;2.13;71.11;99496.28;5051623;28;20370;-48
2022/03/04 03:23:52;;;;;;;37.47;20.20;;;;;;;2.19;71.25;99498.28;5066543;28;20056;-49
2022/03/04 03:26:18;;;;;;;37.53;20.48;;;;;;;2.19;70.97;99493.03;5072926;28;20028;-49
2022/03/04 03:28:43;;;;;;;40.83;20.50;;;;;;;2.24;69.97;99496.00;5077834;28;20032;-52
2022/03/04 03:31:08;;;;;;;38.15;19.23;;;;;;;2.25;70.41;99499.47;5077619;28;20473;-51
2022/03/04 03:33:37;;;;;;;36.92;20.05;;;;;;;2.44;69.55;99493.19;5059839;28;20097;-50
2022/03/04 03:36:03;;;;;;;38.60;19.60;;;;;;;2.24;71.54;99493.38;5064939;28;20028;-51
2022/03/04 03:38:28;;;;;;;38.00;19.73;;;;;;;2.04;71.66;99502.47;5057422;28;20025;-48
2022/03/04 03:40:54;;;;;;;42.30;20.35;;;;;;;2.08;71.08;99472.31;5057407;28;20021;-51
2022/03/04 03:43:19;;;;;;;38.88;20.17;;;;;;;2.05;71.53;99504.91;5058026;28;20029;-50
2022/03/04 03:45:45;;;;;;;36.97;19.95;;;;;;;1.97;71.81;99506.69;5054183;28;20033;-50
2022/03/04 03:48:10;;;;;;;40.80;19.67;;;;;;;1.97;71.90;99504.06;5047943;28;20032;-52
2022/03/04 03:50:38;;;;;;;35.95;19.98;;;;;;;1.86;72.48;99497.25;5050197;28;20516;-51
2022/03/04 03:53:04;;;;;;;37.80;19.73;;;;;;;2.15;71.81;99486.44;5046447;28;20131;-50
2022/03/04 03:55:29;;;;;;;38.13;19.42;;;;;;;2.01;71.65;99500.97;5040909;28;20516;-53
2022/03/04 03:58:00;;;;;;;37.97;20.23;;;;;;;1.98;72.08;99503.06;5037974;28;20033;-49
2022/03/04 04:00:26;;;;;;;36.63;19.02;;;;;;;1.97;72.37;99506.69;5046659;28;20023;-52
2022/03/04 04:02:52;;;;;;;37.63;19.63;;;;;;;1.78;72.78;99502.44;5043031;28;20025;-49
2022/03/04 04:05:18;;;;;;;40.38;21.60;;;;;;;2.10;72.29;99512.34;5037402;28;20022;-54
2022/03/04 04:07:43;;;;;;;42.67;19.90;;;;;;;1.86;73.15;99505.94;5037394;28;20025;-49
2022/03/04 04:10:09;;;;;;;36.22;19.90;;;;;;;1.94;72.88;99511.25;5047324;28;20028;-49
2022/03/04 04:12:34;;;;;;;36.92;19.90;;;;;;;1.88;72.06;99496.09;5048570;28;20108;-48
2022/03/04 04:15:00;;;;;;;40.65;20.50;;;;;;;1.82;72.75;99506.41;5019660;28;20105;-48
2022/03/04 04:17:25;;;;;;;34.00;18.25;;;;;;;1.91;72.35;99508.94;5037458;28;20037;-48
2022/03/04 04:19:51;;;;;;;35.50;19.67;;;;;;;2.04;72.63;99499.84;5045036;28;20051;-48
2022/03/04 04:22:17;;;;;;;33.85;18.73;;;;;;;1.94;73.16;99506.00;5057154;28;20102;-52
2022/03/04 04:24:42;;;;;;;34.45;18.85;;;;;;;1.72;73.40;99506.50;5056769;28;20527;-52
2022/03/04 04:27:07;;;;;;;39.15;19.17;;;;;;;1.67;72.74;99501.69;5056007;28;20040;-49
2022/03/04 04:29:33;;;;;;;38.00;19.13;;;;;;;1.60;72.76;99499.81;5057101;28;20029;-52
2022/03/04 04:31:58;;;;;;;37.85;19.42;;;;;;;1.69;72.78;99501.53;5057279;28;20024;-51
2022/03/04 04:34:24;;;;;;;41.97;20.65;;;;;;;1.50;73.10;99492.03;5056764;28;20032;-51
2022/03/04 04:36:49;;;;;;;36.95;20.38;;;;;;;1.61;72.85;99502.31;5075092;28;20036;-50
2022/03/04 04:39:15;;;;;;;40.38;21.17;;;;;;;1.66;72.61;99499.25;5071947;28;20050;-49
2022/03/04 04:41:40;;;;;;;36.22;19.75;;;;;;;1.70;72.18;99505.84;5072567;28;20024;-52
2022/03/04 04:44:06;;;;;;;38.40;20.40;;;;;;;1.58;73.49;99507.03;5072095;28;20028;-48
2022/03/04 04:46:31;;;;;;;41.67;18.83;;;;;;;1.56;73.55;99508.00;5071821;28;20481;-50
2022/03/04 04:48:57;;;;;;;39.20;19.63;;;;;;;1.51;73.53;99505.00;5071959;28;20047;-48
2022/03/04 04:51:22;;;;;;;41.38;20.60;;;;;;;1.64;72.65;99512.50;5072392;28;20020;-48
2022/03/04 04:53:48;;;;;;;39.03;19.65;;;;;;;1.49;72.51;99512.22;5073276;28;20473;-48
2022/03/04 04:56:13;;;;;;;43.15;19.80;;;;;;;1.68;72.51;99510.41;5073013;28;20117;-48
2022/03/04 04:58:38;;;;;;;44.33;21.73;;;;;;;1.97;71.44;99512.75;5072833;28;20025;-51
2022/03/04 05:01:04;;;;;;;42.83;20.55;;;;;;;1.81;71.79;99515.25;5072433;28;20028;-51
2022/03/04 05:03:29;;;;;;;39.03;19.73;;;;;;;1.55;72.54;99514.22;5072957;28;20581;-50
2022/03/04 05:05:55;;;;;;;45.80;20.50;;;;;;;1.50;72.23;99507.78;5072699;28;20374;-50
2022/03/04 05:08:21;;;;;;;41.03;19.52;;;;;;;1.38;73.21;99509.00;5072843;28;20025;-49
2022/03/04 05:10:46;;;;;;;40.13;20.30;;;;;;;1.23;73.42;99512.13;5072695;28;20031;-48
2022/03/04 05:13:12;;;;;;;39.67;20.35;;;;;;;1.31;72.76;99514.84;5072634;28;20032;-51
2022/03/04 05:15:38;;;;;;;38.17;20.15;;;;;;;1.38;73.60;99516.84;5054073;28;20369;-47
2022/03/04 05:18:04;;;;;;;45.72;20.63;;;;;;;1.36;74.02;99511.75;5052600;28;20036;-52
2022/03/04 05:20:29;;;;;;;47.35;21.83;;;;;;;1.34;74.37;99525.00;5052560;28;20029;-49
2022/03/04 05:22:55;;;;;;;44.28;19.98;;;;;;;1.41;74.53;99522.63;5052222;28;20099;-51
2022/03/04 05:25:20;;;;;;;43.00;21.40;;;;;;;1.61;73.82;99523.28;5051755;28;20029;-52
2022/03/04 05:27:46;;;;;;;42.20;20.27;;;;;;;1.75;73.86;99524.53;5052143;28;20111;-51
2022/03/04 05:30:11;;;;;;;47.45;23.20;;;;;;;1.80;71.39;99527.53;5043688;28;20036;-50
2022/03/04 05:32:37;;;;;;;49.65;22.95;;;;;;;1.90;71.12;99532.69;5034077;28;20045;-52
2022/03/04 05:35:03;;;;;;;41.17;21.65;;;;;;;1.95;71.66;99536.50;5057449;28;20020;-51
2022/03/04 05:37:29;;;;;;;39.28;20.10;;;;;;;1.94;71.21;99529.63;5072401;28;20029;-48
2022/03/04 05:39:54;;;;;;;39.08;19.20;;;;;;;2.35;68.87;99544.81;5072314;28;20036;-49
2022/03/04 05:42:20;;;;;;;33.67;19.08;;;;;;;2.06;71.02;99534.63;5071256;28;20479;-51
2022/03/04 05:44:45;;;;;;;35.45;18.98;;;;;;;2.13;69.74;99541.75;5072181;28;20411;-47
2022/03/04 05:47:10;;;;;;;38.25;19.27;;;;;;;2.03;70.76;99550.69;5072564;28;20020;-50
2022/03/04 05:49:36;;;;;;;38.45;18.98;;;;;;;2.17;70.65;99544.03;5070948;28;20467;-50
2022/03/04 05:52:03;;;;;;;41.40;19.60;;;;;;;2.30;69.65;99545.31;5070683;28;20111;-50
2022/03/04 05:54:28;;;;;;;35.72;18.85;;;;;;;2.32;69.12;99545.97;5070681;28;20561;-49
2022/03/04 05:56:54;;;;;;;32.30;18.52;;;;;;;2.33;68.41;99544.16;5070395;28;20028;-51
2022/03/04 05:59:19;;;;;;;28.42;15.95;;;;;;;2.34;68.75;99546.63;5070861;28;20027;-51
2022/03/04 06:01:45;;;;;;;26.83;14.52;;;;;;;2.46;67.91;99544.56;5070316;28;20100;-50
2022/03/04 06:04:10;;;;;;;25.42;14.05;;;;;;;2.73;67.13;99550.59;5070376;28;20410;-48
2022/03/04 06:06:36;;;;;;;26.38;14.10;;;;;;;2.58;67.57;99550.38;5071474;28;20031;-48
2022/03/04 06:09:01;;;;;;;25.73;15.02;;;;;;;2.60;66.60;99545.78;5071930;28;20032;-50
2022/03/04 06:11:27;;;;;;;23.95;14.13;;;;;;;2.78;65.90;99544.88;5071565;28;20017;-48
2022/03/04 06:13:52;;;;;;;32.10;15.32;;;;;;;2.85;65.76;99551.97;5071356;28;20473;-48
2022/03/04 06:16:19;;;;;;;39.47;20.83;;;;;;;2.87;65.08;99552.63;5071473;28;20019;-49
2022/03/04 06:18:45;;;;;;;28.30;14.60;;;;;;;2.73;65.47;99559.31;5071336;28;20458;-50
2022/03/04 06:21:10;;;;;;;26.60;14.30;;;;;;;2.80;66.31;99559.50;5052850;28;20032;-49
2022/03/04 06:23:36;;;;;;;27.55;14.27;;;;;;;3.05;65.53;99560.44;5051186;28;20371;-50
2022/03/04 06:26:01;;;;;;;26.75;16.05;;;;;;;3.12;65.07;99555.34;5051386;28;20032;-50
2022/03/04 06:28:27;;;;;;;39.42;19.15;;;;;;;3.18;63.59;99546.84;5051057;28;20106;-50
2022/03/04 06:30:53;;;;;;;29.52;16.00;;;;;;;3.15;64.47;99548.97;5051388;28;20025;-52
2022/03/04 06:33:30;;;;;;;27.40;14.68;;;;;;;3.38;63.30;99549.16;5051101;28;20025;-50
2022/03/04 06:36:00;;;;;;;28.33;14.43;;;;;;;3.39;63.51;99553.44;5062676;28;20017;-48
2022/03/04 06:38:26;;;;;;;30.25;15.50;;;;;;;3.49;63.83;99556.75;5070839;28;20025;-49
2022/03/04 06:40:51;;;;;;;30.92;15.68;;;;;;;3.75;63.05;99554.00;5071141;28;20039;-48
2022/03/04 06:43:17;;;;;;;30.65;14.35;;;;;;;3.80;62.49;99550.84;5070914;28;20134;-47
2022/03/04 06:45:46;;;;;;;25.77;14.32;;;;;;;4.03;61.69;99546.56;5071071;28;20028;-50
2022/03/04 06:48:13;;;;;;;33.88;14.68;;;;;;;4.17;61.32;99554.78;5070732;28;20020;-48
2022/03/04 06:50:39;;;;;;;27.10;14.60;;;;;;;4.45;60.48;99547.31;5070843;28;20025;-49
2022/03/04 06:53:04;;;;;;;30.98;15.07;;;;;;;4.46;59.47;99555.06;5053011;28;20025;-48
2022/03/04 06:55:30;;;;;;;26.45;14.73;;;;;;;4.86;58.06;99552.47;5052821;28;20017;-48
2022/03/04 06:57:56;;;;;;;21.85;13.40;;;;;;;4.65;58.37;99550.41;5070821;28;20103;-50
2022/03/04 07:00:22;;;;;;;32.03;14.27;;;;;;;4.64;58.20;99546.94;5070603;28;20028;-47
2022/03/04 07:02:47;;;;;;;22.90;13.77;;;;;;;4.84;57.85;99546.56;5070643;28;20033;-49
2022/03/04 07:05:13;;;;;;;25.70;14.98;;;;;;;4.82;57.34;99549.34;5070506;28;20193;-51
2022/03/04 07:07:38;;;;;;;39.50;20.90;;;;;;;4.83;57.61;99556.25;5052766;28;20024;-51
2022/03/04 07:10:04;;;;;;;35.50;16.90;;;;;;;4.73;57.21;99550.38;5070304;28;20024;-51
2022/03/04 07:12:30;;;;;;;26.58;13.68;;;;;;;5.06;56.33;99545.81;5070593;28;20043;-51
2022/03/04 07:14:55;;;;;;;29.23;14.02;;;;;;;5.09;56.51;99545.44;5069511;28;20479;-48
2022/03/04 07:17:21;;;;;;;29.75;14.15;;;;;;;5.32;56.13;99551.75;5069977;28;20020;-49
2022/03/04 07:19:46;;;;;;;26.33;13.93;;;;;;;5.44;55.87;99553.00;5063488;28;20066;-52
2022/03/04 07:22:12;;;;;;;22.15;13.30;;;;;;;5.58;54.82;99549.63;5049914;28;20488;-51
2022/03/04 07:24:37;;;;;;;25.17;14.32;;;;;;;5.55;55.53;99542.03;5049230;28;20037;-49
2022/03/04 07:27:03;;;;;;;37.95;19.83;;;;;;;5.53;55.44;99551.13;5049573;28;20017;-48
2022/03/04 07:29:29;;;;;;;35.72;19.48;;;;;;;5.68;54.87;99546.75;5049613;28;20029;-49
2022/03/04 07:31:55;;;;;;;27.85;14.38;;;;;;;5.63;55.30;99547.25;5050180;28;20071;-48
2022/03/04 07:34:23;;;;;;;28.25;14.90;;;;;;;5.85;54.61;99542.97;5050228;28;20029;-48
2022/03/04 07:36:49;;;;;;;25.17;14.38;;;;;;;5.94;54.04;99548.19;5069334;28;20017;-49
2022/03/04 07:39:14;;;;;;;28.27;14.68;;;;;;;5.98;53.81;99545.03;5068900;28;20042;-48
2022/03/04 07:41:40;;;;;;;27.17;14.40;;;;;;;5.87;53.96;99548.88;5050424;28;20029;-46
2022/03/04 07:44:05;;;;;;;24.38;14.38;;;;;;;5.85;54.72;99548.25;5049263;28;20563;-49
2022/03/04 07:46:31;;;;;;;29.85;15.35;;;;;;;5.96;54.15;99551.50;5049103;28;20032;-47
2022/03/04 07:48:56;;;;;;;31.73;15.57;;;;;;;5.97;54.04;99551.31;5049421;28;20028;-49
2022/03/04 07:51:22;;;;;;;25.17;15.18;;;;;;;6.10;53.92;99550.72;5049458;28;20025;-49
2022/03/04 07:53:47;;;;;;;29.42;14.73;;;;;;;6.45;53.09;99553.66;5049639;28;20029;-48
2022/03/04 07:56:13;;;;;;;25.48;14.55;;;;;;;6.45;54.69;99551.88;5032224;28;20072;-49
2022/03/04 07:58:38;;;;;;;24.92;15.20;;;;;;;6.76;52.85;99552.66;5049720;28;20481;-50
2022/03/04 08:01:04;;;;;;;29.33;15.90;;;;;;;6.74;52.09;99554.69;5050084;28;20400;-49
2022/03/04 08:03:29;;;;;;;31.48;15.82;;;;;;;6.97;51.70;99560.69;5049796;28;20017;-49
2022/03/04 08:05:55;;;;;;;29.80;16.05;;;;;;;7.76;49.52;99554.63;5048666;28;20087;-51
2022/03/04 08:08:20;;;;;;;30.27;16.02;;;;;;;7.32;49.38;99546.84;5049401;28;20047;-49
2022/03/04 08:10:46;;;;;;;23.77;14.50;;;;;;;7.15;49.39;99551.53;5049712;28;20025;-49
2022/03/04 08:13:11;;;;;;;28.98;12.90;;;;;;;6.72;49.60;99556.69;5050206;28;20016;-49
2022/03/04 08:15:37;;;;;;;23.23;13.50;;;;;;;6.72;49.91;99554.03;5052393;28;20233;-50
2022/03/04 08:18:02;;;;;;;24.98;14.02;;;;;;;6.90;49.63;99524.59;5053054;28;20024;-49
2022/03/04 08:20:29;;;;;;;25.30;14.45;;;;;;;8.37;46.85;99548.78;5053378;28;20025;-49
2022/03/04 08:22:54;;;;;;;28.85;14.75;;;;;;;8.05;48.09;99552.03;5040018;28;20114;-50
2022/03/04 08:25:20;;;;;;;26.92;14.63;;;;;;;8.19;46.79;99548.47;5052451;28;20025;-50
2022/03/04 08:27:45;;;;;;;25.48;14.57;;;;;;;8.26;45.89;99551.16;5052626;28;20503;-50
2022/03/04 08:30:12;;;;;;;30.63;15.77;;;;;;;8.39;46.29;99548.59;5053439;28;20020;-51
2022/03/04 08:32:37;;;;;;;26.83;16.30;;;;;;;8.59;44.87;99549.59;5053525;28;20075;-49
2022/03/04 08:35:03;;;;;;;29.83;15.85;;;;;;;8.40;45.37;99547.59;5056758;28;20012;-49
2022/03/04 08:37:29;;;;;;;28.50;14.98;;;;;;;8.39;45.37;99544.09;5072854;28;20043;-50
2022/03/04 08:39:54;;;;;;;25.40;14.65;;;;;;;9.27;43.97;99543.56;5072967;28;20028;-49
2022/03/04 08:42:20;;;;;;;28.50;15.35;;;;;;;9.93;41.92;99539.38;5072914;28;20020;-49
2022/03/04 08:44:45;;;;;;;27.67;15.35;;;;;;;9.78;42.04;99540.38;5071387;28;20377;-50
2022/03/04 08:47:11;;;;;;;24.33;14.02;;;;;;;9.78;41.98;99540.38;5073048;28;20024;-50
2022/03/04 08:49:36;;;;;;;25.20;14.65;;;;;;;9.73;42.25;99537.53;5072182;28;20031;-49
2022/03/04 08:52:02;;;;;;;49.40;24.85;;;;;;;9.86;41.21;99536.72;5072518;28;20024;-49
2022/03/04 08:54:28;;;;;;;27.80;15.60;;;;;;;9.78;41.24;99544.88;5072879;28;20021;-51
2022/03/04 08:56:53;;;;;;;22.63;13.43;;;;;;;10.06;39.98;99546.53;5072587;28;20023;-51
2022/03/04 08:59:19;;;;;;;20.80;13.25;;;;;;;10.96;37.92;99539.63;5072395;28;20036;-49
2022/03/04 09:01:44;;;;;;;20.40;12.98;;;;;;;10.39;38.90;99537.75;5072587;28;20035;-49
2022/03/04 09:04:13;;;;;;;25.52;14.55;;;;;;;9.92;40.94;99543.88;5072434;28;20457;-48
2022/03/04 09:06:39;;;;;;;23.52;13.50;;;;;;;10.02;39.33;99540.81;5072645;28;20032;-48
2022/03/04 09:09:04;;;;;;;21.85;13.18;;;;;;;10.08;40.11;99539.16;5072405;28;20107;-49
2022/03/04 09:11:30;;;;;;;26.08;15.48;;;;;;;10.49;39.96;99540.78;5072539;28;20020;-51
2022/03/04 09:13:56;;;;;;;21.40;13.15;;;;;;;10.68;39.76;99545.25;5072664;28;20476;-50
2022/03/04 09:16:21;;;;;;;19.08;11.57;;;;;;;11.74;36.47;99543.09;5072350;28;20312;-49
2022/03/04 09:18:46;;;;;;;23.33;12.02;;;;;;;11.51;36.81;99535.66;5072470;28;20490;-47
2022/03/04 09:21:12;;;;;;;22.15;13.38;;;;;;;11.34;38.73;99543.34;5072258;28;20330;-46
2022/03/04 09:23:38;;;;;;;26.20;15.68;;;;;;;11.18;38.45;99542.00;5071564;28;20048;-49
2022/03/04 09:26:04;;;;;;;16.98;11.07;;;;;;;11.33;37.22;99529.22;5057571;28;20060;-49
2022/03/04 09:28:30;;;;;;;21.23;12.07;;;;;;;12.01;36.11;99532.28;5051238;28;20104;-50
2022/03/04 09:30:55;;;;;;;15.30;10.00;;;;;;;12.36;34.61;99527.25;5051113;28;20021;-47
2022/03/04 09:33:21;;;;;;;18.08;10.73;;;;;;;11.82;35.87;99536.69;5052232;28;20028;-47
2022/03/04 09:35:46;;;;;;;15.70;10.57;;;;;;;11.98;35.56;99528.19;5062589;28;20379;-47
2022/03/04 09:38:12;;;;;;;22.98;10.95;;;;;;;11.65;35.70;99531.06;5071828;28;20026;-47
2022/03/04 09:40:38;;;;;;;17.45;10.95;;;;;;;11.72;36.27;99524.66;5071894;28;20389;-51
2022/03/04 09:43:07;;;;;;;19.20;12.05;;;;;;;11.50;37.73;99523.41;5053597;28;20089;-48
2022/03/04 09:45:32;;;;;;;22.17;12.50;;;;;;;11.31;38.04;99525.97;5070361;28;20020;-47
2022/03/04 09:47:58;;;;;;;22.98;12.45;;;;;;;11.11;38.84;99527.91;5071205;28;20097;-49
2022/03/04 09:50:24;;;;;;;19.95;10.82;;;;;;;11.08;37.55;99525.66;5053682;28;20021;-46
2022/03/04 09:52:50;;;;;;;19.25;10.45;;;;;;;10.80;38.28;99532.13;5030302;28;20497;-50
2022/03/04 09:55:15;;;;;;;16.63;10.88;;;;;;;11.00;37.17;99529.38;5050823;28;20558;-48
2022/03/04 09:57:41;;;;;;;16.85;10.88;;;;;;;10.75;37.71;99526.59;5051575;28;20025;-50
2022/03/04 10:00:07;;;;;;;18.45;10.80;;;;;;;10.85;37.27;99521.66;5051445;28;20408;-49
2022/03/04 10:02:33;;;;;;;21.65;10.63;;;;;;;10.62;37.74;99522.13;5051661;28;20500;-48
2022/03/04 10:04:59;;;;;;;15.82;10.38;;;;;;;10.12;39.32;99514.63;5050798;28;20135;-50
2022/03/04 10:07:25;;;;;;;17.50;10.88;;;;;;;9.89;39.77;99511.56;5050831;28;20039;-47
2022/03/04 10:09:51;;;;;;;18.67;10.93;;;;;;;10.56;37.88;99507.00;5051052;28;20024;-48
2022/03/04 10:12:17;;;;;;;17.10;11.18;;;;;;;11.20;36.16;99505.31;5050741;28;20043;-48
2022/03/04 10:14:59;;;;;;;16.67;10.27;;;;;;;11.11;37.73;99507.41;5050461;28;20037;-48
2022/03/04 10:17:25;;;;;;;15.27;10.57;;;;;;;10.87;38.24;99503.63;5050348;28;20040;-48
2022/03/04 10:20:04;;;;;;;20.88;11.38;;;;;;;10.86;38.98;99502.00;5050645;28;20021;-50
2022/03/04 10:22:48;;;;;;;19.70;10.95;;;;;;;10.69;39.06;99496.31;5053848;28;20056;-48
2022/03/04 10:25:14;;;;;;;18.80;11.18;;;;;;;11.30;38.38;99492.34;5070418;28;20028;-48
2022/03/04 10:27:39;;;;;;;17.63;10.95;;;;;;;12.24;36.03;99486.31;5070973;28;20031;-48
2022/03/04 10:30:05;;;;;;;15.48;11.05;;;;;;;12.05;36.36;99488.97;5071089;28;20036;-47
2022/03/04 10:32:30;;;;;;;16.08;10.80;;;;;;;12.20;36.39;99485.13;5070948;28;20024;-48
2022/03/04 10:35:03;;;;;;;16.15;11.18;;;;;;;11.80;36.21;99485.44;5029118;28;20029;-50
2022/03/04 10:37:48;;;;;;;22.15;12.40;;;;;;;11.77;36.17;99486.69;5029921;28;20370;-51
2022/03/04 10:40:13;;;;;;;24.15;15.07;;;;;;;11.47;37.47;99481.19;5030028;28;20028;-47
2022/03/04 10:42:41;;;;;;;20.98;12.93;;;;;;;11.39;36.76;99468.13;5030416;28;20025;-50
2022/03/04 10:45:07;;;;;;;17.58;10.15;;;;;;;11.44;36.56;99481.59;5054704;28;20485;-47
2022/03/04 10:47:44;;;;;;;14.10;9.88;;;;;;;11.27;36.64;99473.31;5070299;28;20444;-49
2022/03/04 10:50:11;;;;;;;14.32;7.68;;;;;;;11.19;36.10;99469.03;5070332;28;20032;-50
2022/03/04 10:52:50;;;;;;;15.35;7.75;;;;;;;11.29;36.42;99469.41;5070392;28;20346;-49
2022/03/04 10:55:35;;;;;;;11.98;8.38;;;;;;;11.52;35.15;99468.84;5070513;28;20473;-51
2022/03/04 10:58:03;;;;;;;13.40;8.23;;;;;;;11.37;35.31;99465.66;5070426;28;20033;-47
2022/03/04 11:00:34;;;;;;;13.35;8.52;;;;;;;11.54;35.86;99458.78;5070288;28;20154;-50
2022/03/04 11:03:00;;;;;;;14.60;8.30;;;;;;;11.43;36.50;99459.47;5070255;28;20449;-47
2022/03/04 11:05:25;;;;;;;13.55;8.75;;;;;;;12.07;35.25;99459.38;5070300;28;20031;-47
2022/03/04 11:07:51;;;;;;;16.10;9.20;;;;;;;12.10;35.74;99453.63;5070337;28;20039;-48
2022/03/04 11:10:17;;;;;;;12.48;8.80;;;;;;;12.29;34.19;99457.91;5070179;28;20028;-48
2022/03/04 11:12:44;;;;;;;14.48;8.75;;;;;;;11.86;35.36;99444.56;5070298;28;20157;-48
2022/03/04 11:15:11;;;;;;;13.02;8.23;;;;;;;11.91;35.53;99447.44;5035879;28;20029;-49
2022/03/04 11:17:37;;;;;;;25.05;14.98;;;;;;;11.45;37.30;99443.28;5069644;28;20035;-48
2022/03/04 11:20:03;;;;;;;15.10;8.40;;;;;;;11.17;38.28;99441.81;5069593;28;20087;-48